createdAt,value
2023-02-03T00:00:58.109Z,3.67
2023-02-03T00:03:26.238Z,3.60
2023-02-03T00:05:55.078Z,3.97
2023-02-03T00:08:24.339Z,4.30
2023-02-03T00:10:52.588Z,4.20
2023-02-03T00:13:21.147Z,3.70
2023-02-03T00:15:50.737Z,3.70
2023-02-03T00:18:18.889Z,3.83
2023-02-03T00:20:47.102Z,4.60
2023-02-03T00:23:15.298Z,4.13
2023-02-03T00:25:43.445Z,3.70
2023-02-03T00:28:11.669Z,4.20
2023-02-03T00:30:40.083Z,4.10
2023-02-03T00:33:09.787Z,3.83
2023-02-03T00:35:40.319Z,3.80
2023-02-03T00:38:08.387Z,3.70
2023-02-03T00:40:36.498Z,3.43
2023-02-03T00:43:04.596Z,4.27
2023-02-03T00:45:32.731Z,3.80
2023-02-03T00:48:00.908Z,4.80
2023-02-03T00:50:30.588Z,4.07
2023-02-03T00:52:59.851Z,3.90
2023-02-03T00:55:28.164Z,3.60
2023-02-03T00:57:56.267Z,3.57
2023-02-03T01:00:25.050Z,3.27
2023-02-03T01:02:53.434Z,3.83
2023-02-03T01:05:21.511Z,3.23
2023-02-03T01:07:51.165Z,3.60
2023-02-03T01:10:19.397Z,3.60
2023-02-03T01:12:47.561Z,3.13
2023-02-03T01:15:15.844Z,4.07
2023-02-03T01:17:44.190Z,3.73
2023-02-03T01:20:14.022Z,4.60
2023-02-03T01:22:42.115Z,4.10
2023-02-03T01:25:12.658Z,4.20
2023-02-03T01:27:40.865Z,3.93
2023-02-03T01:30:09.887Z,3.80
2023-02-03T01:32:38.230Z,4.63
2023-02-03T01:35:06.721Z,3.77
2023-02-03T01:37:34.856Z,4.70
2023-02-03T01:40:02.998Z,3.63
2023-02-03T01:42:34.860Z,3.90
2023-02-03T01:45:02.953Z,3.97
2023-02-03T01:47:34.405Z,4.10
2023-02-03T01:50:10.708Z,3.57
2023-02-03T01:52:40.577Z,3.40
2023-02-03T01:55:14.325Z,3.23
2023-02-03T01:57:49.176Z,4.23
2023-02-03T02:00:17.963Z,3.80
2023-02-03T02:02:49.170Z,3.80
2023-02-03T02:05:24.708Z,3.63
2023-02-03T02:07:53.534Z,3.93
2023-02-03T02:10:21.752Z,3.30
2023-02-03T02:12:51.648Z,3.50
2023-02-03T02:15:24.595Z,3.37
2023-02-03T02:18:14.607Z,3.30
2023-02-03T02:21:24.350Z,3.07
2023-02-03T02:24:23.247Z,2.87
2023-02-03T02:26:59.072Z,3.10
2023-02-03T02:30:20.659Z,3.40
2023-02-03T02:33:03.499Z,3.80
2023-02-03T02:35:46.590Z,2.53
2023-02-03T02:38:22.279Z,3.57
2023-02-03T02:40:55.084Z,2.70
2023-02-03T02:43:30.343Z,3.80
2023-02-03T02:46:04.090Z,3.47
2023-02-03T02:48:39.538Z,4.60
2023-02-03T02:51:12.390Z,3.13
2023-02-03T02:53:44.603Z,3.53
2023-02-03T02:56:15.643Z,3.73
2023-02-03T02:58:48.715Z,3.63
2023-02-03T03:01:18.095Z,3.93
2023-02-03T03:03:48.000Z,3.33
2023-02-03T03:06:20.869Z,2.97
2023-02-03T03:08:55.564Z,2.80
2023-02-03T03:11:26.330Z,3.00
2023-02-03T03:13:56.856Z,2.70
2023-02-03T03:16:27.414Z,3.13
2023-02-03T03:19:00.911Z,3.20
2023-02-03T03:21:33.797Z,3.60
2023-02-03T03:24:08.640Z,3.73
2023-02-03T03:26:40.239Z,3.10
2023-02-03T03:29:15.489Z,3.73
2023-02-03T03:31:44.491Z,3.80
2023-02-03T03:34:16.035Z,3.87
2023-02-03T03:36:47.671Z,3.03
2023-02-03T03:39:24.203Z,4.40
2023-02-03T03:42:00.110Z,4.30
2023-02-03T03:44:32.449Z,3.93
2023-02-03T03:47:08.850Z,3.97
2023-02-03T03:49:42.274Z,4.03
2023-02-03T03:52:11.892Z,3.80
2023-02-03T03:54:42.918Z,3.50
2023-02-03T03:57:17.282Z,3.53
2023-02-03T03:59:48.866Z,3.07
2023-02-03T04:02:20.367Z,4.00
2023-02-03T04:04:51.086Z,4.90
2023-02-03T04:07:20.346Z,3.70
2023-02-03T04:09:48.688Z,3.73
2023-02-03T04:12:24.203Z,4.10
2023-02-03T04:14:52.367Z,3.70
2023-02-03T04:17:20.715Z,3.60
2023-02-03T04:19:50.639Z,3.97
2023-02-03T04:22:18.851Z,3.87
2023-02-03T04:24:47.089Z,3.53
2023-02-03T04:27:15.211Z,4.13
2023-02-03T04:29:43.534Z,5.00
2023-02-03T04:32:11.861Z,4.13
2023-02-03T04:34:40.065Z,3.93
2023-02-03T04:37:09.915Z,4.10
2023-02-03T04:39:38.107Z,5.60
2023-02-03T04:42:06.412Z,5.20
2023-02-03T04:44:34.542Z,4.30
2023-02-03T04:47:02.798Z,4.23
2023-02-03T04:49:30.917Z,4.40
2023-02-03T04:51:59.467Z,4.33
2023-02-03T04:54:29.114Z,3.87
2023-02-03T04:56:57.390Z,4.80
2023-02-03T04:59:25.512Z,4.67
2023-02-03T05:01:54.052Z,3.70
2023-02-03T05:04:22.207Z,5.00
2023-02-03T05:06:50.440Z,3.90
2023-02-03T05:09:18.750Z,3.90
2023-02-03T05:11:48.372Z,4.20
2023-02-03T05:14:16.703Z,3.83
2023-02-03T05:16:46.200Z,3.83
2023-02-03T05:19:14.940Z,3.97
2023-02-03T05:21:43.092Z,4.17
2023-02-03T05:24:12.469Z,5.10
2023-02-03T05:26:40.597Z,4.60
2023-02-03T05:29:11.831Z,4.63
2023-02-03T05:31:40.200Z,4.97
2023-02-03T05:34:08.622Z,4.87
2023-02-03T05:36:36.739Z,4.27
2023-02-03T05:39:05.232Z,4.23
2023-02-03T05:41:50.992Z,3.20
2023-02-03T05:44:20.860Z,3.30
2023-02-03T05:46:49.810Z,4.87
2023-02-03T05:49:18.564Z,4.40
2023-02-03T05:51:47.343Z,4.90
2023-02-03T05:54:15.730Z,5.17
2023-02-03T05:56:43.909Z,5.47
2023-02-03T05:59:12.087Z,5.50
2023-02-03T06:01:41.865Z,6.40
2023-02-03T06:04:10.347Z,6.27
2023-02-03T06:06:38.662Z,6.93
2023-02-03T06:09:09.227Z,4.73
2023-02-03T06:11:37.634Z,4.87
2023-02-03T06:14:06.166Z,5.90
2023-02-03T06:16:34.378Z,4.90
2023-02-03T06:19:03.988Z,4.20
2023-02-03T06:21:32.147Z,4.90
2023-02-03T06:24:00.357Z,4.70
2023-02-03T06:26:28.453Z,4.90
2023-02-03T06:28:56.540Z,4.57
2023-02-03T06:31:24.869Z,4.83
2023-02-03T06:33:53.085Z,4.17
2023-02-03T06:36:22.735Z,4.10
2023-02-03T06:38:51.200Z,4.77
2023-02-03T06:41:19.425Z,5.10
2023-02-03T06:43:47.621Z,5.50
2023-02-03T06:46:15.777Z,5.20
2023-02-03T06:48:44.180Z,4.93
2023-02-03T06:51:12.336Z,5.10
2023-02-03T06:53:41.837Z,5.20
2023-02-03T06:56:10.221Z,4.60
2023-02-03T06:58:38.366Z,5.70
2023-02-03T07:01:06.746Z,5.60
2023-02-03T07:03:34.854Z,4.80
2023-02-03T07:06:03.062Z,4.93
2023-02-03T07:08:31.386Z,5.00
2023-02-03T07:11:00.901Z,4.50
2023-02-03T07:13:29.275Z,4.90
2023-02-03T07:15:57.530Z,5.23
2023-02-03T07:21:15.406Z,4.17
2023-02-03T07:23:43.882Z,5.20
2023-02-03T07:26:13.400Z,4.30
2023-02-03T07:28:41.696Z,4.73
2023-02-03T07:31:10.671Z,5.60
2023-02-03T07:33:39.388Z,5.17
2023-02-03T07:36:09.593Z,5.60
2023-02-03T07:38:38.958Z,4.73
2023-02-03T07:41:07.872Z,4.27
2023-02-03T07:43:37.725Z,5.30
2023-02-03T07:46:06.452Z,4.10
2023-02-03T07:48:34.639Z,4.60
2023-02-03T07:51:02.987Z,4.70
2023-02-03T07:53:31.490Z,5.57
2023-02-03T07:56:01.670Z,5.63
2023-02-03T07:58:30.342Z,5.10
2023-02-03T08:01:00.200Z,4.60
2023-02-03T08:03:28.501Z,4.07
2023-02-03T08:05:56.683Z,4.47
2023-02-03T08:08:24.870Z,4.20
2023-02-03T08:10:53.103Z,3.87
2023-02-03T08:13:21.214Z,4.00
2023-02-03T08:15:49.701Z,3.60
2023-02-03T08:18:19.994Z,3.97
2023-02-03T08:20:49.109Z,4.57
2023-02-03T08:23:17.422Z,4.50
2023-02-03T08:25:45.609Z,4.60
2023-02-03T08:28:13.872Z,3.77
2023-02-03T08:30:42.120Z,4.57
2023-02-03T08:33:10.294Z,4.20
2023-02-03T08:35:40.316Z,4.50
2023-02-03T08:38:08.480Z,3.60
2023-02-03T08:40:36.714Z,3.77
2023-02-03T08:43:04.954Z,3.97
2023-02-03T08:45:33.416Z,3.53
2023-02-03T08:48:01.484Z,3.13
2023-02-03T08:50:31.389Z,3.57
2023-02-03T08:53:01.223Z,3.37
2023-02-03T08:55:29.332Z,2.90
2023-02-03T08:57:57.490Z,3.00
2023-02-03T09:00:25.981Z,2.80
2023-02-03T09:02:54.286Z,3.23
2023-02-03T09:05:22.477Z,3.13
2023-02-03T09:07:50.686Z,2.90
2023-02-03T09:10:20.452Z,4.00
2023-02-03T09:12:48.634Z,3.00
2023-02-03T09:15:16.913Z,3.30
2023-02-03T09:17:45.424Z,2.87
2023-02-03T09:20:15.159Z,3.07
2023-02-03T09:22:43.443Z,2.87
2023-02-03T09:25:11.828Z,3.20
2023-02-03T09:27:41.395Z,3.03
2023-02-03T09:30:10.629Z,3.00
2023-02-03T09:32:39.132Z,2.77
2023-02-03T09:35:07.993Z,3.37
2023-02-03T09:37:37.021Z,2.90
2023-02-03T09:40:06.614Z,3.43
2023-02-03T09:43:03.313Z,3.30
2023-02-03T09:45:32.264Z,3.27
2023-02-03T09:48:07.536Z,3.50
2023-02-03T09:50:37.952Z,3.63
2023-02-03T09:53:14.219Z,3.67
2023-02-03T09:55:44.334Z,3.50
2023-02-03T09:58:15.761Z,4.00
2023-02-03T10:00:45.860Z,2.93
2023-02-03T10:03:26.626Z,2.83
2023-02-03T10:06:21.701Z,3.17
2023-02-03T10:09:02.792Z,3.30
2023-02-03T10:11:46.504Z,3.10
2023-02-03T10:14:33.192Z,2.60
2023-02-03T10:17:23.863Z,3.40
2023-02-03T10:19:56.937Z,2.80
2023-02-03T10:22:29.945Z,2.90
2023-02-03T10:25:02.155Z,3.60
2023-02-03T10:27:33.351Z,3.10
2023-02-03T10:30:07.841Z,2.40
2023-02-03T10:32:37.914Z,3.00
2023-02-03T10:35:12.342Z,2.67
2023-02-03T10:37:45.504Z,3.00
2023-02-03T10:40:15.614Z,2.37
2023-02-03T10:43:02.659Z,3.10
2023-02-03T10:45:37.989Z,3.60
2023-02-03T10:48:10.058Z,2.80
2023-02-03T10:50:43.739Z,2.40
2023-02-03T10:53:24.194Z,3.10
2023-02-03T10:56:02.466Z,3.10
2023-02-03T10:58:33.455Z,3.43
2023-02-03T11:01:11.683Z,3.53
2023-02-03T11:03:42.710Z,2.67
2023-02-03T11:06:13.402Z,2.47
2023-02-03T11:08:44.513Z,2.87
2023-02-03T11:11:16.460Z,2.90
2023-02-03T11:13:44.645Z,3.37
2023-02-03T11:16:17.236Z,3.03
2023-02-03T11:18:53.422Z,2.93
2023-02-03T11:21:23.872Z,3.37
2023-02-03T11:23:56.705Z,2.80
2023-02-03T11:26:29.424Z,3.17
2023-02-03T11:29:00.901Z,3.90
2023-02-03T11:31:32.840Z,4.47
2023-02-03T11:34:04.676Z,4.00
2023-02-03T11:36:35.443Z,4.17
2023-02-03T11:39:13.036Z,2.70
2023-02-03T11:41:41.782Z,3.20
2023-02-03T11:44:14.402Z,3.23
2023-02-03T11:46:44.930Z,3.20
2023-02-03T11:49:34.661Z,2.70
2023-02-03T11:52:17.995Z,3.00
2023-02-03T11:54:55.738Z,2.60
2023-02-03T11:57:35.283Z,3.07
2023-02-03T12:00:21.102Z,3.37
2023-02-03T12:03:15.922Z,2.90
2023-02-03T12:06:00.677Z,3.10
2023-02-03T12:08:45.536Z,2.60
2023-02-03T12:11:28.829Z,2.60
2023-02-03T12:14:09.391Z,2.70
2023-02-03T12:17:06.105Z,2.60
2023-02-03T12:19:47.556Z,2.67
2023-02-03T12:22:25.287Z,2.70
2023-02-03T12:25:00.834Z,2.60
2023-02-03T12:27:45.312Z,3.57
2023-02-03T12:30:21.876Z,3.40
2023-02-03T12:32:52.911Z,4.63
2023-02-03T12:35:26.749Z,4.20
2023-02-03T12:38:02.093Z,3.50
2023-02-03T12:40:37.535Z,3.30
2023-02-03T12:43:29.617Z,3.60
2023-02-03T12:46:04.995Z,3.00
2023-02-03T12:48:46.436Z,3.20
2023-02-03T12:51:22.940Z,4.23
2023-02-03T12:53:58.514Z,4.10
2023-02-03T12:56:31.038Z,4.13
2023-02-03T12:59:05.278Z,2.90
2023-02-03T13:01:38.005Z,3.00
2023-02-03T13:04:12.295Z,2.87
2023-02-03T13:06:50.475Z,3.40
2023-02-03T13:09:29.829Z,3.47
2023-02-03T13:12:05.492Z,3.90
2023-02-03T13:14:38.713Z,3.37
2023-02-03T13:17:14.609Z,3.37
2023-02-03T13:19:47.753Z,3.03
2023-02-03T13:22:18.455Z,3.60
2023-02-03T13:24:51.749Z,3.40
2023-02-03T13:27:39.570Z,3.40
2023-02-03T13:30:33.942Z,4.83
2023-02-03T13:33:36.474Z,3.43
2023-02-03T13:36:18.374Z,3.27
2023-02-03T13:39:07.608Z,3.50
2023-02-03T13:41:42.225Z,3.77
2023-02-03T13:44:15.072Z,3.53
2023-02-03T13:46:43.942Z,3.50
2023-02-03T13:49:24.586Z,4.63
2023-02-03T13:51:53.084Z,4.10
2023-02-03T13:54:29.931Z,3.50
2023-02-03T13:57:02.455Z,3.23
2023-02-03T13:59:41.186Z,3.50
2023-02-03T14:02:43.947Z,3.80
2023-02-03T14:05:40.311Z,4.30
2023-02-03T14:08:54.187Z,3.93
2023-02-03T14:11:45.848Z,3.93
2023-02-03T14:14:51.217Z,4.90
2023-02-03T14:17:58.609Z,3.90
2023-02-03T14:21:11.136Z,4.30
2023-02-03T14:23:53.784Z,3.70
2023-02-03T14:26:30.919Z,4.27
2023-02-03T14:29:01.829Z,4.23
2023-02-03T14:31:30.099Z,4.40
2023-02-03T14:34:13.478Z,4.30
2023-02-03T14:36:50.619Z,4.37
2023-02-03T14:39:56.355Z,4.50
2023-02-03T14:42:45.661Z,4.73
2023-02-03T14:45:31.165Z,4.40
2023-02-03T14:48:17.032Z,3.80
2023-02-03T14:50:59.812Z,4.47
2023-02-03T14:53:50.728Z,4.27
2023-02-03T14:56:30.426Z,3.90
2023-02-03T14:59:04.048Z,4.60
2023-02-03T15:02:05.113Z,4.63
2023-02-03T15:04:34.773Z,5.80
2023-02-03T15:07:02.920Z,5.13
2023-02-03T15:09:36.074Z,5.40
2023-02-03T15:12:17.271Z,4.57
2023-02-03T15:14:45.418Z,4.57
2023-02-03T15:17:22.592Z,3.40
2023-02-03T15:19:52.744Z,3.03
2023-02-03T15:22:22.501Z,7.07
2023-02-03T15:24:53.080Z,3.87
2023-02-03T15:27:24.455Z,3.60
2023-02-03T15:29:52.870Z,3.40
2023-02-03T15:32:29.079Z,2.57
2023-02-03T15:34:59.959Z,1.70
2023-02-03T15:37:33.690Z,2.00
2023-02-03T15:40:05.897Z,2.10
2023-02-03T15:42:39.240Z,1.80
2023-02-03T15:45:23.780Z,2.00
2023-02-03T15:47:56.185Z,2.43
2023-02-03T15:50:36.101Z,2.73
2023-02-03T15:53:08.138Z,4.40
2023-02-03T15:55:40.615Z,6.90
2023-02-03T15:58:20.178Z,6.03
2023-02-03T16:00:51.782Z,6.47
2023-02-03T16:03:27.042Z,10.17
2023-02-03T16:05:56.767Z,7.43
2023-02-03T16:08:41.911Z,6.10
2023-02-03T16:11:28.012Z,6.13
2023-02-03T16:13:57.626Z,8.33
2023-02-03T16:16:29.469Z,7.83
2023-02-03T16:19:00.130Z,7.20
2023-02-03T16:21:36.128Z,6.50
2023-02-03T16:24:06.425Z,6.10
2023-02-03T16:26:36.806Z,13.33
2023-02-03T16:29:32.076Z,10.40
2023-02-03T16:32:18.333Z,8.43
2023-02-03T16:35:05.014Z,10.03
2023-02-03T16:38:01.749Z,13.00
2023-02-03T16:40:47.286Z,11.87
2023-02-03T16:43:34.731Z,14.60
2023-02-03T16:46:20.830Z,12.50
2023-02-03T16:49:06.395Z,11.93
2023-02-03T16:51:41.068Z,9.70
2023-02-03T16:54:14.214Z,8.30
2023-02-03T16:56:43.024Z,6.47
2023-02-03T16:59:11.204Z,5.83
2023-02-03T17:01:39.406Z,7.27
2023-02-03T17:04:08.221Z,9.03
2023-02-03T17:06:39.021Z,8.50
2023-02-03T17:09:07.537Z,9.90
2023-02-03T17:11:37.112Z,10.40
2023-02-03T17:14:05.326Z,9.90
2023-02-03T17:16:33.968Z,8.97
2023-02-03T17:19:02.701Z,9.67
2023-02-03T17:21:31.116Z,10.60
2023-02-03T17:23:59.348Z,10.87
2023-02-03T17:26:27.841Z,12.13
2023-02-03T17:29:02.991Z,13.87
2023-02-03T17:31:31.916Z,17.43
2023-02-03T17:34:00.705Z,17.63
2023-02-03T17:36:28.931Z,17.53
2023-02-03T17:55:34.662Z,18.80
2023-02-03T17:58:02.973Z,16.77
2023-02-03T18:00:32.801Z,13.03
2023-02-03T18:03:00.987Z,11.33
2023-02-03T18:05:29.653Z,10.90
2023-02-03T18:08:01.113Z,11.73
2023-02-03T18:10:34.633Z,12.57
2023-02-03T18:13:03.222Z,11.00
2023-02-03T18:15:33.173Z,12.27
2023-02-03T18:18:01.282Z,12.70
2023-02-03T18:20:29.743Z,11.73
2023-02-03T18:22:57.930Z,12.50
2023-02-03T18:25:26.147Z,10.50
2023-02-03T18:27:54.425Z,8.93
2023-02-03T18:30:22.635Z,9.70
2023-02-03T18:32:53.479Z,9.13
2023-02-03T18:35:21.577Z,7.23
2023-02-03T18:37:49.863Z,7.50
2023-02-03T18:40:18.673Z,7.20
2023-02-03T18:42:46.824Z,6.00
2023-02-03T18:45:14.998Z,5.23
2023-02-03T18:47:43.359Z,7.50
2023-02-03T18:50:12.972Z,6.03
2023-02-03T18:52:41.262Z,7.77
2023-02-03T18:55:10.452Z,7.20
2023-02-03T18:57:38.570Z,8.33
2023-02-03T19:00:08.210Z,8.70
2023-02-03T19:02:36.978Z,8.17
2023-02-03T19:05:06.659Z,10.70
2023-02-03T19:07:36.182Z,10.87
2023-02-03T19:10:04.980Z,10.33
2023-02-03T19:12:33.057Z,9.50
2023-02-03T19:15:01.201Z,8.10
2023-02-03T19:17:29.347Z,5.80
2023-02-03T19:19:57.413Z,4.83
2023-02-03T19:22:25.530Z,4.17
2023-02-03T19:24:55.917Z,5.07
2023-02-03T19:27:24.083Z,6.33
2023-02-03T19:29:52.275Z,5.57
2023-02-03T19:32:20.535Z,4.30
2023-02-03T19:34:48.635Z,5.17
2023-02-03T19:37:17.064Z,5.70
2023-02-03T19:39:47.950Z,6.20
2023-02-03T19:42:17.495Z,6.23
2023-02-03T19:44:45.822Z,6.50
2023-02-03T19:47:13.972Z,5.63
2023-02-03T19:49:42.130Z,6.60
2023-02-03T19:52:10.427Z,6.87
2023-02-03T19:54:38.532Z,8.50
2023-02-03T19:57:06.666Z,7.90
2023-02-03T19:59:36.386Z,8.07
2023-02-03T20:02:13.681Z,9.47
2023-02-03T20:04:42.342Z,8.27
2023-02-03T20:07:10.601Z,7.73
2023-02-03T20:09:38.775Z,7.07
2023-02-03T20:12:07.241Z,6.37
2023-02-03T20:14:36.880Z,5.97
2023-02-03T20:17:06.273Z,6.70
2023-02-03T20:19:34.446Z,6.73
2023-02-03T20:22:02.649Z,8.67
2023-02-03T20:24:30.904Z,6.40
2023-02-03T20:26:59.229Z,6.90
2023-02-03T20:29:27.602Z,7.83
2023-02-03T20:31:58.802Z,8.00
2023-02-03T20:34:27.543Z,7.30
2023-02-03T20:36:58.610Z,6.97
2023-02-03T20:39:27.828Z,7.50
2023-02-03T20:41:56.092Z,7.50
2023-02-03T20:44:24.297Z,7.53
2023-02-03T20:46:55.901Z,7.40
2023-02-03T20:49:26.017Z,8.30
2023-02-03T20:51:54.295Z,6.53
2023-02-03T20:54:23.506Z,7.00
2023-02-03T20:56:51.660Z,6.57
2023-02-03T20:59:20.679Z,7.23
2023-02-03T21:01:50.641Z,7.53
2023-02-03T21:04:37.382Z,8.00
2023-02-03T21:07:15.048Z,8.50
2023-02-03T21:09:43.187Z,7.60
2023-02-03T21:12:13.133Z,6.87
2023-02-03T21:14:44.036Z,8.07
2023-02-03T21:17:20.199Z,8.73
2023-02-03T21:19:48.818Z,8.43
2023-02-03T21:22:21.587Z,9.40
2023-02-03T21:24:53.071Z,9.20
2023-02-03T21:27:27.243Z,8.70
2023-02-03T21:29:57.467Z,8.43
2023-02-03T21:32:35.338Z,8.90
2023-02-03T21:35:03.410Z,7.50
2023-02-03T21:37:41.571Z,8.43
2023-02-03T21:40:21.696Z,8.57
2023-02-03T21:42:49.952Z,8.30
2023-02-03T21:45:45.784Z,9.80
2023-02-03T21:48:30.912Z,9.33
2023-02-03T21:51:03.059Z,8.27
2023-02-03T21:53:35.770Z,7.93
2023-02-03T21:56:22.469Z,8.30
2023-02-03T21:58:52.108Z,11.57
2023-02-03T22:01:23.085Z,10.53
2023-02-03T22:03:52.655Z,8.80
2023-02-03T22:06:27.098Z,8.10
2023-02-03T22:08:58.870Z,9.13
2023-02-03T22:11:29.244Z,8.90
2023-02-03T22:13:58.250Z,9.67
2023-02-03T22:16:29.069Z,9.97
2023-02-03T22:18:58.470Z,9.00
2023-02-03T22:21:28.713Z,9.10
2023-02-03T22:23:58.409Z,8.83
2023-02-03T22:26:26.555Z,10.03
2023-02-03T22:28:55.006Z,10.07
2023-02-03T22:31:23.659Z,9.40
2023-02-03T22:33:51.867Z,11.10
2023-02-03T22:36:22.269Z,13.33
2023-02-03T22:38:50.760Z,11.37
2023-02-03T22:41:21.075Z,11.17
2023-02-03T22:43:49.269Z,11.57
2023-02-03T22:46:17.524Z,12.33
2023-02-03T22:48:45.784Z,11.83
2023-02-03T22:51:13.966Z,12.33
2023-02-03T22:53:42.158Z,11.70
2023-02-03T22:56:10.556Z,11.83
2023-02-03T22:58:40.047Z,12.30
2023-02-03T23:01:08.256Z,12.10
2023-02-03T23:03:36.544Z,11.90
2023-02-03T23:06:04.900Z,12.50
2023-02-03T23:08:33.236Z,12.60
2023-02-03T23:11:01.433Z,12.30
2023-02-03T23:13:30.393Z,12.30
2023-02-03T23:15:59.984Z,14.23
2023-02-03T23:18:28.170Z,12.67
2023-02-03T23:20:56.339Z,12.27
2023-02-03T23:23:24.572Z,10.50
2023-02-03T23:25:52.801Z,10.83
2023-02-03T23:28:20.964Z,10.53
2023-02-03T23:30:49.353Z,9.90
2023-02-03T23:33:18.956Z,13.37
2023-02-03T23:35:46.181Z,11.83
2023-02-03T23:38:15.188Z,11.43
2023-02-03T23:40:43.533Z,10.60
2023-02-03T23:43:11.985Z,11.00
2023-02-03T23:45:40.143Z,10.03
2023-02-03T23:48:09.399Z,13.40
2023-02-03T23:50:39.106Z,10.93
2023-02-03T23:53:07.174Z,10.63
2023-02-03T23:55:36.484Z,10.87
2023-02-03T23:58:05.717Z,12.20
